Time;durP1;ratioP1;P1;durP2;ratioP2;P2;SDS_P1;SDS_P2;PMS_P1;PMS_P2;Temp;Humidity;BMP_temperature;BMP_pressure;BME280_temperature;BME280_humidity;BME280_pressure;Samples;Min_cycle;Max_cycle;Signal;HPM_P1;HPM_P2
2020/12/13 05:19:52;;;;;;;18.80;10.23;;;-0.60;99.90;;;;;;5092971;23;20408;-67
2020/12/13 05:22:21;;;;;;;17.55;10.82;;;-0.60;99.90;;;;;;4896791;29;20024;-68
2020/12/13 05:24:47;;;;;;;16.92;10.50;;;-0.60;99.90;;;;;;4883081;29;20040;-68
2020/12/13 05:27:13;;;;;;;16.48;9.70;;;-0.60;99.90;;;;;;4892317;29;20029;-68
2020/12/13 05:29:43;;;;;;;15.60;9.50;;;-0.50;99.90;;;;;;4877600;29;20372;-69
2020/12/13 05:32:18;;;;;;;;;;;-0.50;99.90;;;;;;4891292;29;20033;-72
2020/12/13 05:34:46;;;;;;;16.30;9.85;;;-0.50;99.90;;;;;;4878143;29;19915;-72
2020/12/13 05:37:17;;;;;;;16.10;9.10;;;-0.50;99.90;;;;;;4890743;29;20510;-76
2020/12/13 05:39:47;;;;;;;16.20;9.40;;;-0.50;99.90;;;;;;4885976;29;20032;-76
2020/12/13 05:42:25;;;;;;;17.30;10.05;;;-0.50;99.90;;;;;;4896564;29;20035;-75
2020/12/13 05:52:51;;;;;;;14.70;9.20;;;-0.20;99.90;;;;;;4895979;29;20495;-75
2020/12/13 05:55:18;;;;;;;47.88;31.15;;;-0.30;99.90;;;;;;4896162;29;20036;-74
2020/12/13 05:57:47;;;;;;;177.48;60.35;;;-0.30;99.90;;;;;;4895590;29;20032;-73
2020/12/13 06:00:14;;;;;;;149.68;63.38;;;-0.30;99.90;;;;;;4888531;29;20093;-74
2020/12/13 06:02:43;;;;;;;56.00;31.60;;;-0.30;99.90;;;;;;4878768;29;20025;-74
2020/12/13 06:05:15;;;;;;;45.35;29.10;;;-0.30;99.90;;;;;;4884875;29;20112;-74
2020/12/13 06:07:50;;;;;;;28.92;22.48;;;-0.30;99.90;;;;;;4892648;29;20025;-75
2020/12/13 06:10:24;;;;;;;19.45;13.73;;;-0.20;99.90;;;;;;4889378;29;20129;-75
2020/12/13 06:13:09;;;;;;;16.13;9.52;;;-0.20;99.90;;;;;;4890991;29;20025;-76
2020/12/13 06:15:35;;;;;;;15.30;9.60;;;-0.10;99.90;;;;;;4894318;29;20392;-76
2020/12/13 06:18:04;;;;;;;13.75;8.95;;;-0.20;99.90;;;;;;4895036;29;20029;-75
2020/12/13 06:20:30;;;;;;;16.15;9.98;;;-0.20;99.90;;;;;;4876663;29;20041;-74
2020/12/13 06:22:56;;;;;;;14.60;9.30;;;-0.20;99.90;;;;;;4880731;29;20712;-73
2020/12/13 06:25:22;;;;;;;16.45;9.40;;;-0.20;99.90;;;;;;4881954;29;20029;-73
2020/12/13 06:27:50;;;;;;;16.85;9.88;;;-0.20;99.90;;;;;;4878842;29;20021;-73
2020/12/13 06:30:16;;;;;;;16.50;10.18;;;-0.20;99.90;;;;;;4894735;29;20077;-76
2020/12/13 06:32:45;;;;;;;15.50;9.23;;;-0.20;99.90;;;;;;4888135;29;20553;-77
2020/12/13 06:35:11;;;;;;;16.33;9.10;;;-0.20;99.90;;;;;;4891268;29;20032;-77
2020/12/13 06:37:38;;;;;;;16.35;9.77;;;-0.20;99.90;;;;;;4897213;29;20029;-81
2020/12/13 06:40:08;;;;;;;17.13;9.40;;;-0.10;99.90;;;;;;4894668;29;20501;-73
2020/12/13 06:42:41;;;;;;;17.90;10.30;;;-0.10;99.90;;;;;;4887035;29;20080;-74
2020/12/13 06:45:12;;;;;;;17.13;9.25;;;-0.10;99.90;;;;;;4895096;29;20024;-77
2020/12/13 06:47:41;;;;;;;;;;;-0.10;99.90;;;;;;4887076;29;20433;-75
2020/12/13 06:50:22;;;;;;;14.80;9.17;;;-0.10;99.90;;;;;;4884475;29;19961;-75
2020/12/13 06:52:50;;;;;;;13.82;9.23;;;-0.10;99.90;;;;;;4870285;29;20515;-76
2020/12/13 06:55:17;;;;;;;16.98;9.77;;;-0.10;99.90;;;;;;4891592;29;20165;-77
2020/12/13 06:57:46;;;;;;;13.93;9.18;;;0.00;99.90;;;;;;4891465;29;20025;-77
2020/12/13 07:00:12;;;;;;;16.10;9.32;;;0.00;99.90;;;;;;4880458;29;20116;-88
2020/12/13 07:02:48;;;;;;;20.42;10.18;;;-0.10;99.90;;;;;;4891489;29;20105;-89
2020/12/13 07:05:14;;;;;;;15.55;9.55;;;-0.10;99.90;;;;;;4880941;29;20029;-88
2020/12/13 07:07:41;;;;;;;14.27;8.60;;;0.00;99.90;;;;;;4869123;29;20085;-89
2020/12/13 07:10:08;;;;;;;16.50;9.65;;;0.00;99.90;;;;;;4880332;29;20564;-88
2020/12/13 07:12:35;;;;;;;15.93;9.48;;;0.00;99.90;;;;;;4869120;29;20028;-89
2020/12/13 07:15:00;;;;;;;15.85;9.25;;;0.00;99.90;;;;;;4880652;29;20031;-89
2020/12/13 07:17:30;;;;;;;16.38;10.00;;;0.00;99.90;;;;;;4889922;29;20029;-90
2020/12/13 07:20:00;;;;;;;14.93;8.38;;;0.00;99.90;;;;;;4860882;29;20413;-75
2020/12/13 07:22:33;;;;;;;14.95;9.00;;;0.40;99.90;;;;;;4873500;29;20054;-76
2020/12/13 07:24:59;;;;;;;16.30;9.02;;;0.90;99.90;;;;;;4879770;29;20025;-77
2020/12/13 07:27:27;;;;;;;13.10;8.88;;;1.10;99.90;;;;;;4879960;29;20455;-76
2020/12/13 07:29:56;;;;;;;15.57;10.18;;;0.90;99.90;;;;;;4864954;29;20112;-76
2020/12/13 07:32:23;;;;;;;14.67;8.93;;;0.70;99.90;;;;;;4879157;29;20108;-75
2020/12/13 07:34:49;;;;;;;16.05;8.98;;;0.60;99.90;;;;;;4879760;29;20033;-76
2020/12/13 07:37:17;;;;;;;14.43;9.40;;;0.40;99.90;;;;;;4866481;29;20089;-76
2020/12/13 07:39:43;;;;;;;14.60;8.95;;;0.30;99.90;;;;;;4879029;29;20021;-76
2020/12/13 07:42:13;;;;;;;16.08;9.25;;;0.30;99.90;;;;;;4879060;29;20029;-75
2020/12/13 07:44:39;;;;;;;17.15;9.32;;;0.30;99.90;;;;;;4878358;29;20036;-77
2020/12/13 07:47:05;;;;;;;16.00;9.20;;;0.30;99.90;;;;;;4878814;29;20077;-78
2020/12/13 07:49:31;;;;;;;14.27;8.68;;;0.30;99.90;;;;;;4877397;29;20646;-76
2020/12/13 07:51:57;;;;;;;13.02;8.60;;;0.30;99.90;;;;;;4882762;29;20131;-77
2020/12/13 07:54:26;;;;;;;15.98;9.32;;;0.30;99.90;;;;;;4879589;29;20084;-77
2020/12/13 07:56:53;;;;;;;13.85;8.65;;;0.30;99.90;;;;;;4878993;29;20501;-76
2020/12/13 07:59:24;;;;;;;13.35;8.18;;;0.30;99.90;;;;;;4879048;29;20028;-74
2020/12/13 08:01:55;;;;;;;13.13;8.30;;;0.30;99.90;;;;;;4870792;29;20536;-78
2020/12/13 08:04:34;;;;;;;;;;;0.40;99.90;;;;;;4879651;29;20108;-76
2020/12/13 08:07:01;;;;;;;13.10;8.57;;;0.30;99.90;;;;;;4871508;29;19908;-79
2020/12/13 08:09:27;;;;;;;16.63;9.07;;;0.30;99.90;;;;;;4878831;29;20513;-75
2020/12/13 08:11:53;;;;;;;17.10;9.27;;;0.30;99.90;;;;;;4878166;29;20040;-76
2020/12/13 08:14:24;;;;;;;15.65;8.73;;;0.30;99.90;;;;;;4881703;29;20041;-76
2020/12/13 08:16:53;;;;;;;;;;;0.30;99.90;;;;;;4880812;29;20041;-76
2020/12/13 08:19:43;;;;;;;24.67;12.13;;;0.20;99.90;;;;;;4881574;29;19924;-76
2020/12/13 08:22:17;;;;;;;17.52;9.77;;;0.20;99.90;;;;;;4872691;29;20029;-76
2020/12/13 08:24:43;;;;;;;15.23;9.02;;;0.20;99.90;;;;;;4878349;29;20024;-76
2020/12/13 08:27:11;;;;;;;14.38;8.57;;;0.20;99.90;;;;;;4875995;29;20029;-76
2020/12/13 08:29:37;;;;;;;17.23;9.85;;;0.20;99.90;;;;;;4877641;29;20033;-76
2020/12/13 08:32:12;;;;;;;13.40;8.45;;;0.20;99.90;;;;;;4877404;29;20417;-76
2020/12/13 08:34:37;;;;;;;15.73;8.85;;;0.20;99.90;;;;;;4877851;29;20041;-76
2020/12/13 08:37:03;;;;;;;12.95;8.80;;;0.20;99.90;;;;;;4877990;29;20028;-75
2020/12/13 08:39:37;;;;;;;16.02;9.07;;;0.20;99.90;;;;;;4883387;29;20502;-75
2020/12/13 08:42:05;;;;;;;14.82;8.80;;;0.20;99.90;;;;;;4874467;29;20029;-75
2020/12/13 08:44:36;;;;;;;18.33;9.60;;;0.20;99.90;;;;;;4876955;29;20275;-75
2020/12/13 08:47:03;;;;;;;15.63;9.30;;;0.20;99.90;;;;;;4876728;29;20017;-76
2020/12/13 08:49:32;;;;;;;14.18;8.55;;;0.30;99.90;;;;;;4878074;29;20037;-75
2020/12/13 08:52:12;;;;;;;14.02;8.57;;;0.40;99.90;;;;;;4877783;29;20037;-76
2020/12/13 08:54:52;;;;;;;13.07;8.48;;;0.40;99.90;;;;;;4877790;29;20048;-76
2020/12/13 08:57:47;;;;;;;15.18;9.45;;;0.40;99.90;;;;;;4878106;29;20036;-75
2020/12/13 09:00:17;;;;;;;15.80;9.15;;;0.40;99.90;;;;;;4878411;29;20491;-75
2020/12/13 09:03:04;;;;;;;17.70;9.50;;;0.40;99.90;;;;;;4878408;29;20372;-75
2020/12/13 09:05:31;;;;;;;17.95;11.15;;;0.40;99.90;;;;;;4872324;29;20033;-74
2020/12/13 09:07:58;;;;;;;17.88;10.35;;;0.40;99.90;;;;;;4875072;29;20033;-75
2020/12/13 09:10:26;;;;;;;15.32;9.77;;;0.40;99.90;;;;;;4878030;29;20032;-76
2020/12/13 09:12:52;;;;;;;15.40;10.10;;;0.40;99.90;;;;;;4880522;29;20036;-76
2020/12/13 09:15:20;;;;;;;15.70;10.00;;;0.40;99.90;;;;;;4876903;29;20025;-76
2020/12/13 09:18:03;;;;;;;15.75;10.13;;;0.40;99.90;;;;;;4881367;29;20177;-73
2020/12/13 09:20:33;;;;;;;15.13;9.52;;;0.50;99.90;;;;;;4869662;29;20055;-75
2020/12/13 09:23:13;;;;;;;14.55;9.27;;;0.50;99.90;;;;;;4881067;29;20100;-76
2020/12/13 09:25:43;;;;;;;15.00;9.38;;;1.10;99.90;;;;;;4870071;29;20120;-76
2020/12/13 09:28:11;;;;;;;16.92;9.43;;;1.10;99.90;;;;;;4877595;29;20032;-76
2020/12/13 09:30:37;;;;;;;14.88;8.90;;;1.00;99.90;;;;;;4877577;29;20405;-76
2020/12/13 09:33:04;;;;;;;13.40;8.77;;;0.90;99.90;;;;;;4877845;29;20096;-75
2020/12/13 09:35:32;;;;;;;13.48;8.80;;;1.00;99.90;;;;;;4876985;29;20025;-84
2020/12/13 09:37:59;;;;;;;13.10;8.93;;;1.20;99.90;;;;;;4883698;29;20036;-74
2020/12/13 09:40:25;;;;;;;13.85;8.90;;;1.20;99.90;;;;;;4876339;29;20092;-78
2020/12/13 09:42:53;;;;;;;14.90;9.52;;;1.10;99.90;;;;;;4885390;29;20045;-78
2020/12/13 09:45:19;;;;;;;15.95;9.00;;;1.00;99.90;;;;;;4873740;29;20404;-77
2020/12/13 09:47:45;;;;;;;13.80;9.13;;;0.90;99.90;;;;;;4890783;29;20058;-78
2020/12/13 09:50:12;;;;;;;16.02;9.73;;;0.90;99.90;;;;;;4877355;29;20041;-78
2020/12/13 09:52:37;;;;;;;18.42;10.18;;;0.90;99.90;;;;;;4877506;29;20025;-77
2020/12/13 09:55:05;;;;;;;17.58;10.10;;;0.90;99.90;;;;;;4877680;29;20029;-74
2020/12/13 09:57:30;;;;;;;16.73;9.65;;;0.80;99.90;;;;;;4881496;29;20029;-73
2020/12/13 09:59:56;;;;;;;16.20;9.20;;;0.80;99.90;;;;;;4873721;29;20112;-73
2020/12/13 10:02:22;;;;;;;15.57;9.77;;;0.80;99.90;;;;;;4863029;29;20069;-73
2020/12/13 10:04:47;;;;;;;14.38;9.50;;;0.70;99.90;;;;;;4868048;29;20065;-73
2020/12/13 10:09:39;;;;;;;16.52;9.85;;;0.70;99.90;;;;;;4877263;29;20018;-73
2020/12/13 10:12:05;;;;;;;17.08;10.23;;;0.70;99.90;;;;;;4871748;29;20045;-74
2020/12/13 10:14:30;;;;;;;18.20;10.82;;;0.70;99.90;;;;;;4880866;29;20366;-73
2020/12/13 10:16:56;;;;;;;16.75;11.13;;;0.60;99.90;;;;;;4881174;29;20061;-74
2020/12/13 10:19:22;;;;;;;17.58;10.82;;;0.60;99.90;;;;;;4868221;29;20064;-74
2020/12/13 10:21:49;;;;;;;17.85;10.23;;;0.60;99.90;;;;;;4893195;29;20017;-73
2020/12/13 10:24:14;;;;;;;18.20;10.77;;;0.60;99.90;;;;;;4895492;29;20122;-74
2020/12/13 10:26:41;;;;;;;18.10;11.00;;;0.60;99.90;;;;;;4882865;29;20492;-75
2020/12/13 10:29:08;;;;;;;18.80;10.68;;;0.70;99.90;;;;;;4876172;29;20041;-75
2020/12/13 10:31:36;;;;;;;19.58;10.88;;;0.60;99.90;;;;;;4875336;29;20048;-75
2020/12/13 10:34:05;;;;;;;15.07;10.20;;;0.60;99.90;;;;;;4881589;29;20020;-75
2020/12/13 10:36:33;;;;;;;15.30;10.47;;;0.60;99.90;;;;;;4882113;29;20029;-75
2020/12/13 10:38:59;;;;;;;16.15;10.15;;;0.70;99.90;;;;;;4881820;29;20017;-75
2020/12/13 10:41:24;;;;;;;15.18;9.52;;;0.70;99.90;;;;;;4880737;29;20029;-75
2020/12/13 10:43:51;;;;;;;16.90;10.55;;;0.80;99.90;;;;;;4881729;29;20481;-75
2020/12/13 10:46:17;;;;;;;19.02;11.48;;;0.80;99.90;;;;;;4881799;29;20569;-75
2020/12/13 10:48:44;;;;;;;16.98;10.93;;;0.80;99.90;;;;;;4878928;29;20069;-74
2020/12/13 10:51:09;;;;;;;14.55;9.10;;;0.80;99.90;;;;;;4868712;29;20108;-74
2020/12/13 10:53:35;;;;;;;16.52;10.35;;;0.80;99.90;;;;;;4881850;29;20127;-73
2020/12/13 10:56:05;;;;;;;14.93;10.02;;;0.80;99.90;;;;;;4880038;29;20076;-74
2020/12/13 10:58:31;;;;;;;16.98;10.40;;;0.80;99.90;;;;;;4880354;29;20037;-74
2020/12/13 11:00:57;;;;;;;15.77;10.23;;;0.90;99.90;;;;;;4881277;29;20044;-74
2020/12/13 11:03:23;;;;;;;18.33;10.73;;;0.90;99.90;;;;;;4881662;29;20477;-74
2020/12/13 11:05:49;;;;;;;14.98;9.50;;;0.90;99.90;;;;;;4882742;29;20025;-75
2020/12/13 11:08:15;;;;;;;15.93;10.02;;;0.90;99.90;;;;;;4879149;29;20092;-73
2020/12/13 11:10:48;;;;;;;15.50;9.65;;;1.00;99.90;;;;;;4880101;29;20108;-78
2020/12/13 11:13:14;;;;;;;16.65;10.95;;;1.00;99.90;;;;;;4880262;29;20029;-77
2020/12/13 11:15:44;;;;;;;17.35;10.15;;;1.00;99.90;;;;;;4881619;29;20037;-77
2020/12/13 11:18:10;;;;;;;13.90;9.13;;;0.90;99.90;;;;;;4881132;29;20116;-77
2020/12/13 11:20:35;;;;;;;13.95;9.32;;;1.00;99.90;;;;;;4878487;29;20037;-77
2020/12/13 11:23:01;;;;;;;15.25;9.80;;;1.00;99.90;;;;;;4879019;29;20064;-78
2020/12/13 11:25:27;;;;;;;13.35;8.98;;;1.00;99.90;;;;;;4870624;29;20315;-78
2020/12/13 11:27:53;;;;;;;19.58;10.52;;;1.00;99.90;;;;;;4879743;29;20477;-78
2020/12/13 11:30:19;;;;;;;20.90;11.93;;;1.00;99.90;;;;;;4879502;29;20465;-77
2020/12/13 11:32:44;;;;;;;21.65;11.63;;;1.10;99.90;;;;;;4879640;29;20037;-77
2020/12/13 11:35:13;;;;;;;21.70;12.13;;;1.00;99.90;;;;;;4879524;29;20029;-77
2020/12/13 11:37:39;;;;;;;17.70;11.25;;;1.00;99.90;;;;;;4879890;29;20048;-78
2020/12/13 11:40:06;;;;;;;19.45;11.65;;;1.10;99.90;;;;;;4879329;29;20029;-77
2020/12/13 11:42:32;;;;;;;19.45;11.93;;;1.10;99.90;;;;;;4879451;29;20029;-77
2020/12/13 11:44:58;;;;;;;16.63;10.52;;;1.10;99.90;;;;;;4879372;29;20040;-77
2020/12/13 11:47:27;;;;;;;11.18;7.63;;;1.10;99.90;;;;;;4875335;29;20029;-78
2020/12/13 11:49:53;;;;;;;12.20;7.82;;;1.10;99.90;;;;;;4871229;29;20057;-78
2020/12/13 11:52:19;;;;;;;9.60;6.93;;;1.10;99.90;;;;;;4866114;29;20044;-74
2020/12/13 11:54:45;;;;;;;12.25;8.00;;;1.10;99.90;;;;;;4879145;29;20028;-80
2020/12/13 11:57:11;;;;;;;12.60;7.85;;;1.10;99.90;;;;;;4866103;29;20041;-81
2020/12/13 11:59:37;;;;;;;10.57;7.07;;;1.10;99.90;;;;;;4879321;29;20032;-80
2020/12/13 12:02:03;;;;;;;10.80;7.05;;;1.10;99.90;;;;;;4880804;29;20017;-81
2020/12/13 12:04:29;;;;;;;10.43;7.03;;;1.10;99.90;;;;;;4893837;29;20030;-80
2020/12/13 12:06:55;;;;;;;10.55;6.93;;;1.10;99.90;;;;;;4880918;29;20025;-74
2020/12/13 12:09:21;;;;;;;12.57;7.68;;;1.10;99.90;;;;;;4889196;29;20059;-74
2020/12/13 12:11:47;;;;;;;13.32;8.23;;;1.10;99.90;;;;;;4887348;29;20115;-72
2020/12/13 12:14:13;;;;;;;12.73;8.02;;;1.10;99.90;;;;;;4891091;29;20045;-71
2020/12/13 12:16:44;;;;;;;10.68;7.32;;;1.10;99.90;;;;;;4887529;29;20052;-79
2020/12/13 12:19:11;;;;;;;8.20;6.07;;;1.10;99.90;;;;;;4878343;29;20438;-84
2020/12/13 12:21:43;;;;;;;9.52;6.55;;;1.90;99.90;;;;;;4891241;29;20107;-85
2020/12/13 12:24:08;;;;;;;9.13;5.93;;;2.20;99.90;;;;;;4881906;29;20111;-85
2020/12/13 12:26:34;;;;;;;7.93;5.65;;;2.00;99.90;;;;;;4878463;29;20116;-85
2020/12/13 12:29:01;;;;;;;9.18;6.13;;;1.80;99.90;;;;;;4877342;29;20073;-86
2020/12/13 12:31:27;;;;;;;8.20;6.35;;;1.70;99.90;;;;;;4878581;29;20080;-86
2020/12/13 12:33:54;;;;;;;10.55;6.55;;;1.60;99.90;;;;;;4878723;29;20025;-86
2020/12/13 12:36:25;;;;;;;10.65;8.25;;;1.60;99.90;;;;;;4878478;29;20067;-85
2020/12/13 12:38:51;;;;;;;10.82;7.25;;;1.60;99.90;;;;;;4878369;29;20073;-86
2020/12/13 12:41:20;;;;;;;10.55;7.10;;;1.50;99.90;;;;;;4878333;29;20032;-85
2020/12/13 12:43:47;;;;;;;11.57;7.78;;;1.40;99.90;;;;;;4875826;29;20190;-86
2020/12/13 12:46:14;;;;;;;11.70;7.85;;;1.40;99.90;;;;;;4860073;29;20029;-85
2020/12/13 12:48:40;;;;;;;13.05;8.07;;;1.40;99.90;;;;;;4860981;29;20026;-85
2020/12/13 12:51:09;;;;;;;8.48;5.30;;;1.40;99.90;;;;;;4878158;29;20041;-78
2020/12/13 12:53:35;;;;;;;11.95;8.60;;;1.80;99.90;;;;;;4878124;29;20120;-74
2020/12/13 12:56:06;;;;;;;10.98;7.18;;;3.20;99.90;;;;;;4890136;29;20021;-73
2020/12/13 12:58:40;;;;;;;11.23;7.72;;;3.20;99.90;;;;;;4877985;29;20061;-74
2020/12/13 13:01:09;;;;;;;13.35;8.52;;;2.80;99.90;;;;;;4882989;29;20028;-75
2020/12/13 13:03:35;;;;;;;10.65;7.72;;;2.50;99.90;;;;;;4880407;29;20025;-75
2020/12/13 13:08:38;;;;;;;10.98;7.68;;;2.20;99.90;;;;;;4880531;29;20128;-75
2020/12/13 13:11:10;;;;;;;10.98;7.05;;;2.00;99.90;;;;;;4872406;29;20115;-75
2020/12/13 13:13:35;;;;;;;10.32;7.45;;;1.90;99.90;;;;;;4886637;29;20104;-75
2020/12/13 13:16:01;;;;;;;9.60;7.07;;;1.80;99.90;;;;;;4877540;29;20437;-74
2020/12/13 13:18:31;;;;;;;11.32;7.28;;;1.80;99.90;;;;;;4877729;29;20860;-73
2020/12/13 13:20:59;;;;;;;10.13;7.20;;;1.80;99.90;;;;;;4874608;29;20037;-74
2020/12/13 13:23:26;;;;;;;9.63;6.65;;;1.80;99.90;;;;;;4884730;29;20067;-75
2020/12/13 13:25:53;;;;;;;10.52;7.55;;;1.80;99.90;;;;;;4878440;29;20395;-76
2020/12/13 13:28:18;;;;;;;11.30;7.97;;;1.80;99.90;;;;;;4881587;29;20488;-76
2020/12/13 13:30:44;;;;;;;10.55;7.07;;;1.80;99.90;;;;;;4870335;29;20137;-76
2020/12/13 13:33:10;;;;;;;13.20;8.18;;;1.80;99.90;;;;;;4859101;29;20053;-77
2020/12/13 13:35:36;;;;;;;12.48;8.23;;;1.80;99.90;;;;;;4872062;29;20076;-75
2020/12/13 13:38:03;;;;;;;11.82;7.97;;;1.70;99.90;;;;;;4869915;29;20021;-75
2020/12/13 13:40:29;;;;;;;11.35;8.00;;;1.70;99.90;;;;;;4877620;29;20025;-76
2020/12/13 13:43:13;;;;;;;12.40;8.38;;;1.70;99.90;;;;;;4877678;29;20517;-76
2020/12/13 13:50:48;;;;;;;14.80;9.15;;;4.50;99.90;;;;;;4879950;29;20104;-73
2020/12/13 13:53:14;;;;;;;13.80;9.60;;;4.20;99.90;;;;;;4880752;29;20029;-78
2020/12/13 13:56:09;;;;;;;11.82;7.78;;;3.70;99.90;;;;;;4879577;29;20029;-81
2020/12/13 13:58:34;;;;;;;11.05;7.03;;;3.20;99.90;;;;;;4878418;29;20033;-82
2020/12/13 14:01:00;;;;;;;11.98;8.48;;;2.80;99.90;;;;;;4875157;29;20128;-78
2020/12/13 14:03:26;;;;;;;12.18;8.02;;;2.50;99.90;;;;;;4876910;29;20519;-80
2020/12/13 14:05:59;;;;;;;11.93;7.85;;;2.30;99.90;;;;;;4876061;29;20037;-80
2020/12/13 14:11:05;;;;;;;13.65;8.38;;;2.10;99.90;;;;;;4888558;29;20067;-79
2020/12/13 14:13:31;;;;;;;12.27;7.30;;;2.00;99.90;;;;;;4877661;29;20025;-78
2020/12/13 14:15:56;;;;;;;12.38;7.18;;;1.90;99.90;;;;;;4877379;29;20120;-78
2020/12/13 14:18:22;;;;;;;11.25;7.53;;;1.90;99.90;;;;;;4877337;29;20026;-78
2020/12/13 14:20:48;;;;;;;10.45;6.55;;;1.90;99.90;;;;;;4877535;29;20489;-79
2020/12/13 14:23:13;;;;;;;8.98;6.05;;;1.80;99.90;;;;;;4876982;29;20029;-71
2020/12/13 14:25:39;;;;;;;11.25;6.90;;;1.70;99.90;;;;;;4877655;29;20036;-72
2020/12/13 14:28:05;;;;;;;11.63;7.60;;;1.70;99.90;;;;;;4877210;29;20044;-72
2020/12/13 14:30:30;;;;;;;10.00;6.93;;;1.70;99.90;;;;;;4875270;29;20107;-72
2020/12/13 14:32:56;;;;;;;11.60;7.70;;;1.70;99.90;;;;;;4876700;29;20039;-72
2020/12/13 14:35:22;;;;;;;11.95;7.40;;;1.60;99.90;;;;;;4877074;29;20035;-72
2020/12/13 14:37:48;;;;;;;10.23;7.05;;;1.70;99.90;;;;;;4874297;29;20052;-73
2020/12/13 14:40:15;;;;;;;10.80;7.65;;;1.70;99.90;;;;;;4871705;29;20027;-76
2020/12/13 14:42:40;;;;;;;17.95;9.18;;;1.70;99.90;;;;;;4875333;29;20026;-76
2020/12/13 14:45:06;;;;;;;21.27;12.57;;;1.60;99.90;;;;;;4879875;29;20033;-75
2020/12/13 14:47:32;;;;;;;187.93;72.20;;;1.70;99.90;;;;;;4878591;29;20488;-75
2020/12/13 14:49:58;;;;;;;79.25;30.85;;;1.70;99.90;;;;;;4876647;29;20457;-74
2020/12/13 14:52:23;;;;;;;41.63;18.20;;;1.70;99.90;;;;;;4874860;29;20049;-75
2020/12/13 14:54:49;;;;;;;290.65;126.20;;;1.70;99.90;;;;;;4875496;29;20029;-75
2020/12/13 14:57:15;;;;;;;88.45;40.95;;;1.80;99.90;;;;;;4882635;29;20029;-75
2020/12/13 14:59:46;;;;;;;29.70;16.52;;;1.70;99.90;;;;;;4880610;29;20029;-74
2020/12/13 15:02:15;;;;;;;44.90;22.42;;;1.70;99.90;;;;;;4880177;29;20073;-74
2020/12/13 15:04:41;;;;;;;15.40;9.35;;;1.70;99.90;;;;;;4876018;29;20422;-74
2020/12/13 15:07:07;;;;;;;34.97;20.15;;;1.60;99.90;;;;;;4871014;29;20482;-74
2020/12/13 15:09:34;;;;;;;37.30;22.48;;;1.60;99.90;;;;;;4868286;29;20184;-74
2020/12/13 15:12:02;;;;;;;65.53;37.92;;;1.60;99.90;;;;;;4867785;29;20562;-73
2020/12/13 15:14:36;;;;;;;30.50;15.20;;;1.60;99.90;;;;;;4863526;29;20039;-74
2020/12/13 15:17:07;;;;;;;10.77;7.15;;;1.50;99.90;;;;;;4864479;29;20081;-73
2020/12/13 15:19:32;;;;;;;12.70;8.30;;;1.50;99.90;;;;;;4863178;29;20128;-74
2020/12/13 15:22:02;;;;;;;14.45;9.75;;;1.40;99.90;;;;;;4861700;29;20154;-74
2020/12/13 15:24:28;;;;;;;16.50;9.27;;;1.40;99.90;;;;;;4871030;29;20101;-74
2020/12/13 15:26:54;;;;;;;12.13;8.15;;;1.50;99.90;;;;;;4868732;29;20294;-75
2020/12/13 15:29:19;;;;;;;14.32;7.45;;;1.80;99.90;;;;;;4864556;29;20061;-75
2020/12/13 15:31:45;;;;;;;13.57;7.35;;;1.80;99.90;;;;;;4863841;29;20030;-74
2020/12/13 15:34:12;;;;;;;13.77;7.35;;;1.70;99.90;;;;;;4886770;29;20037;-75
2020/12/13 15:36:39;;;;;;;9.18;6.50;;;1.60;99.90;;;;;;4883644;29;20108;-75
2020/12/13 15:39:05;;;;;;;11.55;7.32;;;1.60;99.90;;;;;;4872682;29;20054;-77
2020/12/13 15:41:31;;;;;;;10.07;6.90;;;1.50;99.90;;;;;;4881974;29;20454;-76
2020/12/13 15:43:57;;;;;;;16.98;11.52;;;1.50;99.90;;;;;;4881235;29;20013;-76
2020/12/13 15:46:23;;;;;;;14.07;8.98;;;1.60;99.90;;;;;;4875960;29;20033;-75
2020/12/13 15:48:48;;;;;;;26.63;21.98;;;1.60;99.90;;;;;;4880096;29;20029;-75
2020/12/13 15:51:14;;;;;;;27.27;22.42;;;1.60;99.90;;;;;;4881059;29;20465;-74
2020/12/13 15:53:44;;;;;;;13.13;9.60;;;1.70;99.90;;;;;;4878897;29;20363;-75
2020/12/13 15:56:13;;;;;;;12.30;8.00;;;1.70;99.90;;;;;;4880167;29;20024;-74
2020/12/13 15:58:40;;;;;;;11.23;7.35;;;1.70;99.90;;;;;;4879203;29;20025;-75
2020/12/13 16:01:06;;;;;;;11.30;7.95;;;1.70;99.90;;;;;;4880787;29;20028;-75
2020/12/13 16:03:32;;;;;;;15.18;8.35;;;1.70;99.90;;;;;;4879224;29;20029;-73
2020/12/13 16:06:00;;;;;;;11.45;7.75;;;1.70;99.90;;;;;;4882517;29;20056;-73
2020/12/13 16:08:26;;;;;;;13.23;8.73;;;1.70;99.90;;;;;;4881070;29;20025;-73
2020/12/13 16:10:51;;;;;;;11.57;7.40;;;1.70;99.90;;;;;;4878300;29;20033;-74
2020/12/13 16:13:17;;;;;;;11.38;7.80;;;1.70;99.90;;;;;;4874288;29;20029;-74
2020/12/13 16:15:44;;;;;;;11.93;7.93;;;1.70;99.90;;;;;;4878833;29;20161;-73
2020/12/13 16:18:10;;;;;;;14.02;7.93;;;1.70;99.90;;;;;;4878608;29;20481;-75
2020/12/13 16:20:36;;;;;;;16.10;9.13;;;1.70;99.90;;;;;;4878669;29;20108;-74
2020/12/13 16:23:04;;;;;;;15.10;8.43;;;1.70;99.90;;;;;;4878827;29;20380;-74
2020/12/13 16:25:30;;;;;;;12.40;7.68;;;1.60;99.90;;;;;;4878765;29;20501;-74
2020/12/13 16:27:59;;;;;;;12.77;8.32;;;1.60;99.90;;;;;;4878647;29;20061;-74
2020/12/13 16:30:27;;;;;;;12.77;7.82;;;1.60;99.90;;;;;;4878851;29;20028;-73
2020/12/13 16:32:54;;;;;;;13.88;8.27;;;1.70;99.90;;;;;;4878678;29;20029;-73
2020/12/13 16:35:20;;;;;;;12.95;8.05;;;1.70;99.90;;;;;;4878420;29;20396;-73
2020/12/13 16:37:55;;;;;;;14.52;9.23;;;1.70;99.90;;;;;;4878497;29;20028;-73
2020/12/13 16:40:24;;;;;;;13.00;8.23;;;1.70;99.90;;;;;;4878357;29;20028;-73
2020/12/13 16:45:33;;;;;;;14.85;9.27;;;1.70;99.90;;;;;;4875998;29;20032;-73
2020/12/13 16:48:08;;;;;;;15.48;9.68;;;1.80;99.90;;;;;;4868407;29;20065;-73
2020/12/13 16:55:51;;;;;;;19.48;10.93;;;1.70;99.90;;;;;;4882189;29;20032;-72
2020/12/13 16:58:21;;;;;;;14.63;9.25;;;1.80;99.90;;;;;;4879474;29;20157;-71
2020/12/13 17:00:47;;;;;;;13.07;8.13;;;1.70;99.90;;;;;;4883715;29;20044;-74
2020/12/13 17:03:13;;;;;;;16.95;9.50;;;2.70;99.90;;;;;;4883435;29;20500;-72
2020/12/13 17:05:39;;;;;;;24.25;14.50;;;2.90;99.90;;;;;;4878003;29;20041;-72
2020/12/13 17:08:05;;;;;;;15.30;8.48;;;2.60;99.90;;;;;;4882435;29;20032;-74
2020/12/13 17:10:32;;;;;;;13.35;8.20;;;2.40;99.90;;;;;;4883500;29;20033;-74
2020/12/13 17:12:57;;;;;;;13.32;8.50;;;2.70;99.90;;;;;;4878373;29;20029;-74
2020/12/13 17:15:25;;;;;;;16.83;9.85;;;2.70;99.90;;;;;;4876704;29;20033;-73
2020/12/13 17:17:52;;;;;;;15.82;9.35;;;2.60;99.90;;;;;;4878274;29;20021;-79
2020/12/13 17:20:18;;;;;;;14.50;8.63;;;2.40;99.90;;;;;;4878207;29;20045;-79
2020/12/13 17:22:44;;;;;;;13.77;8.85;;;2.30;99.90;;;;;;4878542;29;20438;-78
2020/12/13 17:25:09;;;;;;;16.33;9.18;;;2.30;99.90;;;;;;4878250;29;20025;-78
2020/12/13 17:27:35;;;;;;;14.95;8.90;;;2.10;99.90;;;;;;4877106;29;20393;-78
2020/12/13 17:30:01;;;;;;;19.08;11.23;;;2.00;99.90;;;;;;4878218;29;20057;-78
2020/12/13 17:32:27;;;;;;;17.92;10.60;;;2.00;99.90;;;;;;4878184;29;20049;-78
2020/12/13 17:34:53;;;;;;;15.02;9.55;;;2.00;99.90;;;;;;4878484;29;20036;-78
2020/12/13 17:37:18;;;;;;;17.60;10.52;;;2.00;99.90;;;;;;4878118;29;20029;-78
2020/12/13 17:39:45;;;;;;;16.08;9.55;;;2.00;99.90;;;;;;4878295;29;20449;-75
2020/12/13 17:42:11;;;;;;;16.00;9.52;;;1.90;99.90;;;;;;4878086;29;20080;-73
2020/12/13 17:44:40;;;;;;;14.15;9.48;;;2.20;99.90;;;;;;4878263;29;20033;-72
2020/12/13 17:47:06;;;;;;;13.40;8.88;;;2.20;99.90;;;;;;4877971;29;20405;-73
2020/12/13 17:49:34;;;;;;;13.85;8.70;;;2.10;99.90;;;;;;4878258;29;20492;-74
2020/12/13 17:59:43;;;;;;;16.25;9.70;;;2.10;99.90;;;;;;4876782;29;20032;-74
2020/12/13 18:02:09;;;;;;;;;;;2.10;99.90;;;;;;4877551;29;20091;-75
2020/12/13 18:04:34;;;;;;;13.23;9.15;;;2.10;99.90;;;;;;4877617;29;20289;-75
2020/12/13 18:07:00;;;;;;;13.65;8.95;;;2.10;99.90;;;;;;4877099;29;20021;-76
2020/12/13 18:09:26;;;;;;;14.15;9.05;;;2.10;99.90;;;;;;4877576;29;20032;-75
2020/12/13 18:11:57;;;;;;;16.45;9.60;;;2.00;99.90;;;;;;4877570;29;20077;-75
2020/12/13 18:14:25;;;;;;;15.15;9.77;;;2.00;99.90;;;;;;4877959;29;20178;-75
2020/12/13 18:16:50;;;;;;;18.30;9.70;;;2.00;99.90;;;;;;4879148;29;20030;-75
2020/12/13 18:19:16;;;;;;;15.95;9.60;;;1.90;99.90;;;;;;4881209;29;20053;-76
2020/12/13 18:21:45;;;;;;;16.17;9.95;;;1.90;99.90;;;;;;4881580;29;20031;-81
2020/12/13 18:24:11;;;;;;;66.22;37.78;;;1.90;99.90;;;;;;4881474;29;20021;-80
2020/12/13 18:26:36;;;;;;;28.67;17.23;;;1.90;99.90;;;;;;4881391;29;20043;-82
2020/12/13 18:29:02;;;;;;;75.35;44.97;;;1.90;99.90;;;;;;4881463;29;20066;-83
2020/12/13 18:31:28;;;;;;;39.17;23.10;;;2.00;99.90;;;;;;4881266;29;20037;-83
2020/12/13 18:33:54;;;;;;;26.58;16.10;;;2.00;99.90;;;;;;4881407;29;20029;-85
2020/12/13 18:36:20;;;;;;;28.58;16.60;;;2.00;99.90;;;;;;4881042;29;20066;-81
2020/12/13 18:38:47;;;;;;;42.63;29.60;;;2.00;99.90;;;;;;4881351;29;20100;-84
2020/12/13 18:41:15;;;;;;;27.27;21.20;;;1.90;99.90;;;;;;4881233;29;20025;-83
2020/12/13 18:43:45;;;;;;;26.30;20.55;;;2.00;99.90;;;;;;4881197;29;20545;-80